sensor_id;sensor_type;location;lat;lon;timestamp;P1;durP1;ratioP1;P2;durP2;ratioP2
980;SDS011;479;53.514;9.994;2023-04-07T00:00:33;10.00;;;6.45;;
980;SDS011;479;53.514;9.994;2023-04-07T00:03:00;7.93;;;6.03;;
980;SDS011;479;53.514;9.994;2023-04-07T00:05:31;6.25;;;5.65;;
980;SDS011;479;53.514;9.994;2023-04-07T00:07:57;7.22;;;5.10;;
980;SDS011;479;53.514;9.994;2023-04-07T00:10:25;12.90;;;8.00;;
980;SDS011;479;53.514;9.994;2023-04-07T00:12:51;6.80;;;5.75;;
980;SDS011;479;53.514;9.994;2023-04-07T00:15:20;9.70;;;6.55;;
980;SDS011;479;53.514;9.994;2023-04-07T00:17:47;9.18;;;5.55;;
980;SDS011;479;53.514;9.994;2023-04-07T00:20:14;7.70;;;5.60;;
980;SDS011;479;53.514;9.994;2023-04-07T00:22:41;6.75;;;5.90;;
980;SDS011;479;53.514;9.994;2023-04-07T00:25:08;10.90;;;7.93;;
980;SDS011;479;53.514;9.994;2023-04-07T00:27:35;8.07;;;7.22;;
980;SDS011;479;53.514;9.994;2023-04-07T00:30:02;8.95;;;6.75;;
980;SDS011;479;53.514;9.994;2023-04-07T00:32:31;9.32;;;6.45;;
980;SDS011;479;53.514;9.994;2023-04-07T00:34:58;14.20;;;7.90;;
980;SDS011;479;53.514;9.994;2023-04-07T00:37:25;7.50;;;6.43;;
980;SDS011;479;53.514;9.994;2023-04-07T00:39:52;6.15;;;5.60;;
980;SDS011;479;53.514;9.994;2023-04-07T00:42:20;7.55;;;6.35;;
980;SDS011;479;53.514;9.994;2023-04-07T00:44:47;10.40;;;7.28;;
980;SDS011;479;53.514;9.994;2023-04-07T00:47:14;8.43;;;5.05;;
980;SDS011;479;53.514;9.994;2023-04-07T00:49:42;6.25;;;5.25;;
980;SDS011;479;53.514;9.994;2023-04-07T00:52:09;9.57;;;7.25;;
980;SDS011;479;53.514;9.994;2023-04-07T00:54:37;8.05;;;6.20;;
980;SDS011;479;53.514;9.994;2023-04-07T00:57:05;6.18;;;5.65;;
980;SDS011;479;53.514;9.994;2023-04-07T00:59:32;7.55;;;6.68;;
980;SDS011;479;53.514;9.994;2023-04-07T01:02:01;7.75;;;7.05;;
980;SDS011;479;53.514;9.994;2023-04-07T01:04:38;8.90;;;8.00;;
980;SDS011;479;53.514;9.994;2023-04-07T01:07:14;6.13;;;5.50;;
980;SDS011;479;53.514;9.994;2023-04-07T01:10:11;7.20;;;5.93;;
980;SDS011;479;53.514;9.994;2023-04-07T01:12:53;7.47;;;6.72;;
980;SDS011;479;53.514;9.994;2023-04-07T01:15:26;7.82;;;5.90;;
980;SDS011;479;53.514;9.994;2023-04-07T01:17:58;8.40;;;6.55;;
980;SDS011;479;53.514;9.994;2023-04-07T01:20:32;7.43;;;6.20;;
980;SDS011;479;53.514;9.994;2023-04-07T01:23:03;6.25;;;5.70;;
980;SDS011;479;53.514;9.994;2023-04-07T01:25:44;8.43;;;6.35;;
980;SDS011;479;53.514;9.994;2023-04-07T01:28:33;15.25;;;7.40;;
980;SDS011;479;53.514;9.994;2023-04-07T01:31:11;6.50;;;5.90;;
980;SDS011;479;53.514;9.994;2023-04-07T01:33:41;7.35;;;5.70;;
980;SDS011;479;53.514;9.994;2023-04-07T01:36:11;6.93;;;5.50;;
980;SDS011;479;53.514;9.994;2023-04-07T01:38:38;6.65;;;5.95;;
980;SDS011;479;53.514;9.994;2023-04-07T01:41:06;7.03;;;5.30;;
980;SDS011;479;53.514;9.994;2023-04-07T01:43:36;6.78;;;5.57;;
980;SDS011;479;53.514;9.994;2023-04-07T01:46:04;7.20;;;5.78;;
980;SDS011;479;53.514;9.994;2023-04-07T01:48:32;9.02;;;6.60;;
980;SDS011;479;53.514;9.994;2023-04-07T01:51:01;6.03;;;5.47;;
980;SDS011;479;53.514;9.994;2023-04-07T01:53:30;7.03;;;6.03;;
980;SDS011;479;53.514;9.994;2023-04-07T01:55:57;7.00;;;5.63;;
980;SDS011;479;53.514;9.994;2023-04-07T01:58:25;7.43;;;5.13;;
980;SDS011;479;53.514;9.994;2023-04-07T02:00:52;7.28;;;6.50;;
980;SDS011;479;53.514;9.994;2023-04-07T02:03:22;6.38;;;5.70;;
980;SDS011;479;53.514;9.994;2023-04-07T02:05:55;8.15;;;6.47;;
980;SDS011;479;53.514;9.994;2023-04-07T02:08:27;5.72;;;5.22;;
980;SDS011;479;53.514;9.994;2023-04-07T02:10:56;8.05;;;6.68;;
980;SDS011;479;53.514;9.994;2023-04-07T02:13:27;5.57;;;5.05;;
980;SDS011;479;53.514;9.994;2023-04-07T02:15:55;6.07;;;5.47;;
980;SDS011;479;53.514;9.994;2023-04-07T02:18:23;6.55;;;5.75;;
980;SDS011;479;53.514;9.994;2023-04-07T02:20:54;6.25;;;5.65;;
980;SDS011;479;53.514;9.994;2023-04-07T02:23:22;9.40;;;6.82;;
980;SDS011;479;53.514;9.994;2023-04-07T02:25:49;7.38;;;5.05;;
980;SDS011;479;53.514;9.994;2023-04-07T02:28:16;11.52;;;5.70;;
980;SDS011;479;53.514;9.994;2023-04-07T02:30:44;8.27;;;5.82;;
980;SDS011;479;53.514;9.994;2023-04-07T02:33:11;6.10;;;4.95;;
980;SDS011;479;53.514;9.994;2023-04-07T02:35:38;7.18;;;6.22;;
980;SDS011;479;53.514;9.994;2023-04-07T02:38:06;5.20;;;4.78;;
980;SDS011;479;53.514;9.994;2023-04-07T02:40:34;4.90;;;4.50;;
980;SDS011;479;53.514;9.994;2023-04-07T02:43:01;6.60;;;5.90;;
980;SDS011;479;53.514;9.994;2023-04-07T02:45:29;5.80;;;4.53;;
980;SDS011;479;53.514;9.994;2023-04-07T02:47:56;5.80;;;5.30;;
980;SDS011;479;53.514;9.994;2023-04-07T02:50:23;6.53;;;4.57;;
980;SDS011;479;53.514;9.994;2023-04-07T02:52:50;10.00;;;4.88;;
980;SDS011;479;53.514;9.994;2023-04-07T02:55:18;10.15;;;5.13;;
980;SDS011;479;53.514;9.994;2023-04-07T02:57:45;6.13;;;5.53;;
980;SDS011;479;53.514;9.994;2023-04-07T03:00:33;4.95;;;4.45;;
980;SDS011;479;53.514;9.994;2023-04-07T03:03:09;5.55;;;5.05;;
980;SDS011;479;53.514;9.994;2023-04-07T03:05:39;10.63;;;5.00;;
980;SDS011;479;53.514;9.994;2023-04-07T03:08:08;5.35;;;4.85;;
980;SDS011;479;53.514;9.994;2023-04-07T03:10:37;5.85;;;5.25;;
980;SDS011;479;53.514;9.994;2023-04-07T03:13:06;5.65;;;5.07;;
980;SDS011;479;53.514;9.994;2023-04-07T03:15:34;16.90;;;9.38;;
980;SDS011;479;53.514;9.994;2023-04-07T03:18:01;5.13;;;4.63;;
980;SDS011;479;53.514;9.994;2023-04-07T03:20:28;5.03;;;4.45;;
980;SDS011;479;53.514;9.994;2023-04-07T03:23:00;5.88;;;4.10;;
980;SDS011;479;53.514;9.994;2023-04-07T03:25:28;5.20;;;4.45;;
980;SDS011;479;53.514;9.994;2023-04-07T03:27:57;7.20;;;5.63;;
980;SDS011;479;53.514;9.994;2023-04-07T03:30:27;5.03;;;4.53;;
980;SDS011;479;53.514;9.994;2023-04-07T03:32:54;9.73;;;6.18;;
980;SDS011;479;53.514;9.994;2023-04-07T03:35:21;6.18;;;5.00;;
980;SDS011;479;53.514;9.994;2023-04-07T03:37:48;6.22;;;5.53;;
980;SDS011;479;53.514;9.994;2023-04-07T03:40:17;6.70;;;4.50;;
980;SDS011;479;53.514;9.994;2023-04-07T03:42:45;4.28;;;3.53;;
980;SDS011;479;53.514;9.994;2023-04-07T03:45:14;6.43;;;4.45;;
980;SDS011;479;53.514;9.994;2023-04-07T03:47:45;6.07;;;4.35;;
980;SDS011;479;53.514;9.994;2023-04-07T03:50:13;7.10;;;3.75;;
980;SDS011;479;53.514;9.994;2023-04-07T03:52:54;5.28;;;4.07;;
980;SDS011;479;53.514;9.994;2023-04-07T03:55:24;4.35;;;4.05;;
980;SDS011;479;53.514;9.994;2023-04-07T03:57:55;6.68;;;4.38;;
980;SDS011;479;53.514;9.994;2023-04-07T04:00:27;5.72;;;4.80;;
980;SDS011;479;53.514;9.994;2023-04-07T04:03:05;7.63;;;4.70;;
980;SDS011;479;53.514;9.994;2023-04-07T04:05:34;4.20;;;3.80;;
980;SDS011;479;53.514;9.994;2023-04-07T04:08:01;6.18;;;4.68;;
980;SDS011;479;53.514;9.994;2023-04-07T04:10:30;5.85;;;4.93;;
980;SDS011;479;53.514;9.994;2023-04-07T04:12:57;6.78;;;5.10;;
980;SDS011;479;53.514;9.994;2023-04-07T04:15:26;5.13;;;4.05;;
980;SDS011;479;53.514;9.994;2023-04-07T04:17:53;6.15;;;5.05;;
980;SDS011;479;53.514;9.994;2023-04-07T04:20:21;4.32;;;4.03;;
980;SDS011;479;53.514;9.994;2023-04-07T04:22:49;6.38;;;4.22;;
980;SDS011;479;53.514;9.994;2023-04-07T04:25:17;4.60;;;4.20;;
980;SDS011;479;53.514;9.994;2023-04-07T04:27:49;4.60;;;4.20;;
980;SDS011;479;53.514;9.994;2023-04-07T04:30:20;4.15;;;3.38;;
980;SDS011;479;53.514;9.994;2023-04-07T04:32:56;4.13;;;3.83;;
980;SDS011;479;53.514;9.994;2023-04-07T04:35:31;4.25;;;3.80;;
980;SDS011;479;53.514;9.994;2023-04-07T04:38:08;4.20;;;3.80;;
980;SDS011;479;53.514;9.994;2023-04-07T04:40:38;3.80;;;3.45;;
980;SDS011;479;53.514;9.994;2023-04-07T04:43:06;4.78;;;4.22;;
980;SDS011;479;53.514;9.994;2023-04-07T04:45:35;3.92;;;3.58;;
980;SDS011;479;53.514;9.994;2023-04-07T04:48:05;4.07;;;3.78;;
980;SDS011;479;53.514;9.994;2023-04-07T04:50:33;4.38;;;3.45;;
980;SDS011;479;53.514;9.994;2023-04-07T04:53:05;5.88;;;4.93;;
980;SDS011;479;53.514;9.994;2023-04-07T04:55:32;3.80;;;3.50;;
980;SDS011;479;53.514;9.994;2023-04-07T04:57:59;4.65;;;4.18;;
980;SDS011;479;53.514;9.994;2023-04-07T05:00:36;6.15;;;3.85;;
980;SDS011;479;53.514;9.994;2023-04-07T05:03:07;7.63;;;4.25;;
980;SDS011;479;53.514;9.994;2023-04-07T05:05:37;6.00;;;4.03;;
980;SDS011;479;53.514;9.994;2023-04-07T05:08:04;4.93;;;4.40;;
980;SDS011;479;53.514;9.994;2023-04-07T05:10:36;6.22;;;4.00;;
980;SDS011;479;53.514;9.994;2023-04-07T05:13:06;4.93;;;3.85;;
980;SDS011;479;53.514;9.994;2023-04-07T05:15:34;5.30;;;4.80;;
980;SDS011;479;53.514;9.994;2023-04-07T05:18:02;4.55;;;4.15;;
980;SDS011;479;53.514;9.994;2023-04-07T05:20:30;12.43;;;5.38;;
980;SDS011;479;53.514;9.994;2023-04-07T05:22:58;5.57;;;4.53;;
980;SDS011;479;53.514;9.994;2023-04-07T05:25:30;5.88;;;4.68;;
980;SDS011;479;53.514;9.994;2023-04-07T05:28:01;5.85;;;4.70;;
980;SDS011;479;53.514;9.994;2023-04-07T05:30:28;5.43;;;4.68;;
980;SDS011;479;53.514;9.994;2023-04-07T05:32:55;5.38;;;4.88;;
980;SDS011;479;53.514;9.994;2023-04-07T05:35:37;4.82;;;4.05;;
980;SDS011;479;53.514;9.994;2023-04-07T05:38:04;5.78;;;4.82;;
980;SDS011;479;53.514;9.994;2023-04-07T05:40:31;4.10;;;3.67;;
980;SDS011;479;53.514;9.994;2023-04-07T05:43:01;10.65;;;4.57;;
980;SDS011;479;53.514;9.994;2023-04-07T05:45:30;4.93;;;4.53;;
980;SDS011;479;53.514;9.994;2023-04-07T05:47:58;5.25;;;4.50;;
980;SDS011;479;53.514;9.994;2023-04-07T05:50:34;4.22;;;3.47;;
980;SDS011;479;53.514;9.994;2023-04-07T05:53:06;3.55;;;3.25;;
980;SDS011;479;53.514;9.994;2023-04-07T05:55:33;5.10;;;4.40;;
980;SDS011;479;53.514;9.994;2023-04-07T05:58:01;7.13;;;5.05;;
980;SDS011;479;53.514;9.994;2023-04-07T06:00:30;5.70;;;4.13;;
980;SDS011;479;53.514;9.994;2023-04-07T06:03:06;5.32;;;4.45;;
980;SDS011;479;53.514;9.994;2023-04-07T06:05:45;5.32;;;4.85;;
980;SDS011;479;53.514;9.994;2023-04-07T06:08:13;6.30;;;5.07;;
980;SDS011;479;53.514;9.994;2023-04-07T06:10:39;3.67;;;3.38;;
980;SDS011;479;53.514;9.994;2023-04-07T06:13:08;4.47;;;3.75;;
980;SDS011;479;53.514;9.994;2023-04-07T06:15:35;6.80;;;4.13;;
980;SDS011;479;53.514;9.994;2023-04-07T06:18:02;5.32;;;4.13;;
980;SDS011;479;53.514;9.994;2023-04-07T06:20:29;6.18;;;4.35;;
980;SDS011;479;53.514;9.994;2023-04-07T06:22:58;6.70;;;4.57;;
980;SDS011;479;53.514;9.994;2023-04-07T06:25:25;4.97;;;4.22;;
980;SDS011;479;53.514;9.994;2023-04-07T06:27:52;4.82;;;4.43;;
980;SDS011;479;53.514;9.994;2023-04-07T06:30:21;4.75;;;4.18;;
980;SDS011;479;53.514;9.994;2023-04-07T06:32:49;4.80;;;4.40;;
980;SDS011;479;53.514;9.994;2023-04-07T06:35:16;4.85;;;4.35;;
980;SDS011;479;53.514;9.994;2023-04-07T06:37:43;8.07;;;5.28;;
980;SDS011;479;53.514;9.994;2023-04-07T06:40:11;6.10;;;5.50;;
980;SDS011;479;53.514;9.994;2023-04-07T06:42:38;6.35;;;3.85;;
980;SDS011;479;53.514;9.994;2023-04-07T06:45:14;5.18;;;3.63;;
980;SDS011;479;53.514;9.994;2023-04-07T06:47:41;4.20;;;3.60;;
980;SDS011;479;53.514;9.994;2023-04-07T06:50:08;6.40;;;5.57;;
980;SDS011;479;53.514;9.994;2023-04-07T06:52:35;6.70;;;4.80;;
980;SDS011;479;53.514;9.994;2023-04-07T06:55:02;6.93;;;5.53;;
980;SDS011;479;53.514;9.994;2023-04-07T06:57:31;5.13;;;4.70;;
980;SDS011;479;53.514;9.994;2023-04-07T06:59:58;7.17;;;5.20;;
980;SDS011;479;53.514;9.994;2023-04-07T07:02:25;5.20;;;4.60;;
980;SDS011;479;53.514;9.994;2023-04-07T07:04:52;5.30;;;4.47;;
980;SDS011;479;53.514;9.994;2023-04-07T07:07:18;6.10;;;5.10;;
980;SDS011;479;53.514;9.994;2023-04-07T07:09:45;6.00;;;4.97;;
980;SDS011;479;53.514;9.994;2023-04-07T07:12:12;5.07;;;4.57;;
980;SDS011;479;53.514;9.994;2023-04-07T07:14:42;4.23;;;3.80;;
980;SDS011;479;53.514;9.994;2023-04-07T07:17:09;4.87;;;4.33;;
980;SDS011;479;53.514;9.994;2023-04-07T07:19:36;6.30;;;4.60;;
980;SDS011;479;53.514;9.994;2023-04-07T07:22:03;5.60;;;3.87;;
980;SDS011;479;53.514;9.994;2023-04-07T07:24:30;6.30;;;5.00;;
980;SDS011;479;53.514;9.994;2023-04-07T07:26:58;8.77;;;5.30;;
980;SDS011;479;53.514;9.994;2023-04-07T07:29:26;7.57;;;5.57;;
980;SDS011;479;53.514;9.994;2023-04-07T07:31:54;5.20;;;4.63;;
980;SDS011;479;53.514;9.994;2023-04-07T07:34:21;8.77;;;5.00;;
980;SDS011;479;53.514;9.994;2023-04-07T07:36:48;3.90;;;3.60;;
980;SDS011;479;53.514;9.994;2023-04-07T07:39:14;6.47;;;4.80;;
980;SDS011;479;53.514;9.994;2023-04-07T07:41:41;4.73;;;4.33;;
980;SDS011;479;53.514;9.994;2023-04-07T07:44:08;4.50;;;3.50;;
980;SDS011;479;53.514;9.994;2023-04-07T07:46:35;5.73;;;4.80;;
980;SDS011;479;53.514;9.994;2023-04-07T07:49:03;6.20;;;5.60;;
980;SDS011;479;53.514;9.994;2023-04-07T07:51:30;6.23;;;5.30;;
980;SDS011;479;53.514;9.994;2023-04-07T07:53:57;6.90;;;5.93;;
980;SDS011;479;53.514;9.994;2023-04-07T07:56:24;5.93;;;4.40;;
980;SDS011;479;53.514;9.994;2023-04-07T07:58:51;5.53;;;4.77;;
980;SDS011;479;53.514;9.994;2023-04-07T08:01:18;4.87;;;4.33;;
980;SDS011;479;53.514;9.994;2023-04-07T08:03:45;7.07;;;5.37;;
980;SDS011;479;53.514;9.994;2023-04-07T08:06:13;6.47;;;5.30;;
980;SDS011;479;53.514;9.994;2023-04-07T08:08:40;4.20;;;3.80;;
980;SDS011;479;53.514;9.994;2023-04-07T08:11:07;5.50;;;4.30;;
980;SDS011;479;53.514;9.994;2023-04-07T08:13:34;7.00;;;4.93;;
980;SDS011;479;53.514;9.994;2023-04-07T08:16:01;4.43;;;4.13;;
980;SDS011;479;53.514;9.994;2023-04-07T08:18:28;6.50;;;5.37;;
980;SDS011;479;53.514;9.994;2023-04-07T08:20:55;5.70;;;4.63;;
980;SDS011;479;53.514;9.994;2023-04-07T08:23:24;8.07;;;4.67;;
980;SDS011;479;53.514;9.994;2023-04-07T08:25:51;5.97;;;4.47;;
980;SDS011;479;53.514;9.994;2023-04-07T08:28:18;6.23;;;5.63;;
980;SDS011;479;53.514;9.994;2023-04-07T08:30:45;6.70;;;4.40;;
980;SDS011;479;53.514;9.994;2023-04-07T08:33:12;5.23;;;4.80;;
980;SDS011;479;53.514;9.994;2023-04-07T08:35:39;5.43;;;4.93;;
980;SDS011;479;53.514;9.994;2023-04-07T08:38:06;4.90;;;4.40;;
980;SDS011;479;53.514;9.994;2023-04-07T08:40:35;5.30;;;4.80;;
980;SDS011;479;53.514;9.994;2023-04-07T08:43:02;4.70;;;4.17;;
980;SDS011;479;53.514;9.994;2023-04-07T08:45:32;6.17;;;5.53;;
980;SDS011;479;53.514;9.994;2023-04-07T08:48:03;4.60;;;4.20;;
980;SDS011;479;53.514;9.994;2023-04-07T08:50:42;4.77;;;4.30;;
980;SDS011;479;53.514;9.994;2023-04-07T08:53:11;4.70;;;4.30;;
980;SDS011;479;53.514;9.994;2023-04-07T08:55:41;9.70;;;7.60;;
980;SDS011;479;53.514;9.994;2023-04-07T08:58:08;5.70;;;5.10;;
980;SDS011;479;53.514;9.994;2023-04-07T09:00:37;15.53;;;6.17;;
980;SDS011;479;53.514;9.994;2023-04-07T09:03:05;13.87;;;8.90;;
980;SDS011;479;53.514;9.994;2023-04-07T09:05:33;17.67;;;8.93;;
980;SDS011;479;53.514;9.994;2023-04-07T09:08:01;12.20;;;6.10;;
980;SDS011;479;53.514;9.994;2023-04-07T09:10:28;12.10;;;7.10;;
980;SDS011;479;53.514;9.994;2023-04-07T09:12:58;7.03;;;5.40;;
980;SDS011;479;53.514;9.994;2023-04-07T09:15:27;5.43;;;4.87;;
980;SDS011;479;53.514;9.994;2023-04-07T09:17:56;6.07;;;4.80;;
980;SDS011;479;53.514;9.994;2023-04-07T09:20:23;5.80;;;5.27;;
980;SDS011;479;53.514;9.994;2023-04-07T09:22:50;6.50;;;5.00;;
980;SDS011;479;53.514;9.994;2023-04-07T09:25:18;5.63;;;4.70;;
980;SDS011;479;53.514;9.994;2023-04-07T09:27:55;4.47;;;4.03;;
980;SDS011;479;53.514;9.994;2023-04-07T09:30:27;4.70;;;4.30;;
980;SDS011;479;53.514;9.994;2023-04-07T09:32:54;6.60;;;5.10;;
980;SDS011;479;53.514;9.994;2023-04-07T09:35:22;4.93;;;4.40;;
980;SDS011;479;53.514;9.994;2023-04-07T09:37:59;4.10;;;3.67;;
980;SDS011;479;53.514;9.994;2023-04-07T09:40:28;5.93;;;5.10;;
980;SDS011;479;53.514;9.994;2023-04-07T09:42:55;5.83;;;4.20;;
980;SDS011;479;53.514;9.994;2023-04-07T09:45:24;6.37;;;4.93;;
980;SDS011;479;53.514;9.994;2023-04-07T09:47:52;5.07;;;4.67;;
980;SDS011;479;53.514;9.994;2023-04-07T09:50:32;5.40;;;4.90;;
980;SDS011;479;53.514;9.994;2023-04-07T09:53:00;5.40;;;4.90;;
980;SDS011;479;53.514;9.994;2023-04-07T09:55:29;4.50;;;4.10;;
980;SDS011;479;53.514;9.994;2023-04-07T09:57:58;6.03;;;5.43;;
980;SDS011;479;53.514;9.994;2023-04-07T10:00:26;4.10;;;3.70;;
980;SDS011;479;53.514;9.994;2023-04-07T10:02:53;5.70;;;5.07;;
980;SDS011;479;53.514;9.994;2023-04-07T10:05:21;4.93;;;4.50;;
980;SDS011;479;53.514;9.994;2023-04-07T10:07:49;5.40;;;4.70;;
980;SDS011;479;53.514;9.994;2023-04-07T10:10:16;4.83;;;4.43;;
980;SDS011;479;53.514;9.994;2023-04-07T10:12:43;5.00;;;4.50;;
980;SDS011;479;53.514;9.994;2023-04-07T10:15:11;5.80;;;5.07;;
980;SDS011;479;53.514;9.994;2023-04-07T10:17:41;6.17;;;5.67;;
980;SDS011;479;53.514;9.994;2023-04-07T10:20:12;7.27;;;5.03;;
980;SDS011;479;53.514;9.994;2023-04-07T10:22:45;5.73;;;5.30;;
980;SDS011;479;53.514;9.994;2023-04-07T10:25:16;7.40;;;4.70;;
980;SDS011;479;53.514;9.994;2023-04-07T10:27:47;7.27;;;4.90;;
980;SDS011;479;53.514;9.994;2023-04-07T10:30:18;5.83;;;5.27;;
980;SDS011;479;53.514;9.994;2023-04-07T10:32:50;6.10;;;5.53;;
980;SDS011;479;53.514;9.994;2023-04-07T10:35:19;4.53;;;4.23;;
980;SDS011;479;53.514;9.994;2023-04-07T10:40:42;4.57;;;4.00;;
980;SDS011;479;53.514;9.994;2023-04-07T10:43:09;6.70;;;3.97;;
980;SDS011;479;53.514;9.994;2023-04-07T10:45:55;6.17;;;4.00;;
980;SDS011;479;53.514;9.994;2023-04-07T10:48:26;3.70;;;3.40;;
980;SDS011;479;53.514;9.994;2023-04-07T10:51:10;5.50;;;4.53;;
980;SDS011;479;53.514;9.994;2023-04-07T10:57:09;6.37;;;3.80;;
980;SDS011;479;53.514;9.994;2023-04-07T10:59:41;8.17;;;5.77;;
980;SDS011;479;53.514;9.994;2023-04-07T11:02:29;4.70;;;4.30;;
980;SDS011;479;53.514;9.994;2023-04-07T11:04:59;6.10;;;4.80;;
980;SDS011;479;53.514;9.994;2023-04-07T11:07:46;5.70;;;5.10;;
980;SDS011;479;53.514;9.994;2023-04-07T11:10:19;5.53;;;4.87;;
980;SDS011;479;53.514;9.994;2023-04-07T11:12:56;5.10;;;4.60;;
980;SDS011;479;53.514;9.994;2023-04-07T11:15:24;4.80;;;4.40;;
980;SDS011;479;53.514;9.994;2023-04-07T11:18:14;4.90;;;4.40;;
980;SDS011;479;53.514;9.994;2023-04-07T11:20:45;6.70;;;5.30;;
980;SDS011;479;53.514;9.994;2023-04-07T11:23:14;6.00;;;5.20;;
980;SDS011;479;53.514;9.994;2023-04-07T11:25:43;4.30;;;3.90;;
980;SDS011;479;53.514;9.994;2023-04-07T11:28:11;4.50;;;4.10;;
980;SDS011;479;53.514;9.994;2023-04-07T11:30:43;6.27;;;4.97;;
980;SDS011;479;53.514;9.994;2023-04-07T11:33:14;5.83;;;5.23;;
980;SDS011;479;53.514;9.994;2023-04-07T11:35:47;7.20;;;4.83;;
980;SDS011;479;53.514;9.994;2023-04-07T11:38:15;6.13;;;4.57;;
980;SDS011;479;53.514;9.994;2023-04-07T11:40:42;5.10;;;4.60;;
980;SDS011;479;53.514;9.994;2023-04-07T11:43:16;4.40;;;4.00;;
980;SDS011;479;53.514;9.994;2023-04-07T11:45:45;4.93;;;4.33;;
980;SDS011;479;53.514;9.994;2023-04-07T11:51:02;6.20;;;4.77;;
980;SDS011;479;53.514;9.994;2023-04-07T11:53:32;4.40;;;3.97;;
980;SDS011;479;53.514;9.994;2023-04-07T11:56:05;9.30;;;6.20;;
980;SDS011;479;53.514;9.994;2023-04-07T11:58:34;12.40;;;5.43;;
980;SDS011;479;53.514;9.994;2023-04-07T12:01:03;4.63;;;3.80;;
980;SDS011;479;53.514;9.994;2023-04-07T12:03:33;4.53;;;4.13;;
980;SDS011;479;53.514;9.994;2023-04-07T12:06:03;5.27;;;4.17;;
980;SDS011;479;53.514;9.994;2023-04-07T12:08:37;3.53;;;3.23;;
980;SDS011;479;53.514;9.994;2023-04-07T12:11:06;4.67;;;4.23;;
980;SDS011;479;53.514;9.994;2023-04-07T12:13:36;2.63;;;2.40;;
980;SDS011;479;53.514;9.994;2023-04-07T12:16:11;4.20;;;3.80;;
980;SDS011;479;53.514;9.994;2023-04-07T12:18:38;4.20;;;3.80;;
980;SDS011;479;53.514;9.994;2023-04-07T12:21:07;6.97;;;5.83;;
980;SDS011;479;53.514;9.994;2023-04-07T12:23:35;3.97;;;3.63;;
980;SDS011;479;53.514;9.994;2023-04-07T12:26:02;2.00;;;1.80;;
980;SDS011;479;53.514;9.994;2023-04-07T12:28:32;7.07;;;3.70;;
980;SDS011;479;53.514;9.994;2023-04-07T12:31:03;3.30;;;3.10;;
980;SDS011;479;53.514;9.994;2023-04-07T12:33:34;5.40;;;3.10;;
980;SDS011;479;53.514;9.994;2023-04-07T12:36:01;5.43;;;3.27;;
980;SDS011;479;53.514;9.994;2023-04-07T12:38:32;5.13;;;4.63;;
980;SDS011;479;53.514;9.994;2023-04-07T12:41:00;3.50;;;3.20;;
980;SDS011;479;53.514;9.994;2023-04-07T12:43:28;4.20;;;3.73;;
980;SDS011;479;53.514;9.994;2023-04-07T12:45:55;5.37;;;4.20;;
980;SDS011;479;53.514;9.994;2023-04-07T12:48:22;6.67;;;3.07;;
980;SDS011;479;53.514;9.994;2023-04-07T12:50:50;3.53;;;2.90;;
980;SDS011;479;53.514;9.994;2023-04-07T12:53:20;3.50;;;3.20;;
980;SDS011;479;53.514;9.994;2023-04-07T12:55:52;4.83;;;4.33;;
980;SDS011;479;53.514;9.994;2023-04-07T12:58:20;3.27;;;2.97;;
980;SDS011;479;53.514;9.994;2023-04-07T13:00:47;4.80;;;3.83;;
980;SDS011;479;53.514;9.994;2023-04-07T13:03:14;5.03;;;3.70;;
980;SDS011;479;53.514;9.994;2023-04-07T13:05:41;3.07;;;2.87;;
980;SDS011;479;53.514;9.994;2023-04-07T13:08:08;4.63;;;4.10;;
980;SDS011;479;53.514;9.994;2023-04-07T13:10:35;4.03;;;2.93;;
980;SDS011;479;53.514;9.994;2023-04-07T13:13:03;2.47;;;2.27;;
980;SDS011;479;53.514;9.994;2023-04-07T13:15:30;4.03;;;2.97;;
980;SDS011;479;53.514;9.994;2023-04-07T13:17:57;4.10;;;2.93;;
980;SDS011;479;53.514;9.994;2023-04-07T13:20:24;5.20;;;3.70;;
980;SDS011;479;53.514;9.994;2023-04-07T13:22:52;3.50;;;2.90;;
980;SDS011;479;53.514;9.994;2023-04-07T13:25:19;3.23;;;2.80;;
980;SDS011;479;53.514;9.994;2023-04-07T13:27:46;2.43;;;2.20;;
980;SDS011;479;53.514;9.994;2023-04-07T13:30:14;3.73;;;2.97;;
980;SDS011;479;53.514;9.994;2023-04-07T13:32:41;3.53;;;2.60;;
980;SDS011;479;53.514;9.994;2023-04-07T13:35:08;2.70;;;2.47;;
980;SDS011;479;53.514;9.994;2023-04-07T13:37:35;2.60;;;2.40;;
980;SDS011;479;53.514;9.994;2023-04-07T13:40:02;2.53;;;2.10;;
980;SDS011;479;53.514;9.994;2023-04-07T13:42:30;3.13;;;2.93;;
980;SDS011;479;53.514;9.994;2023-04-07T13:44:57;2.30;;;2.20;;
980;SDS011;479;53.514;9.994;2023-04-07T13:47:25;1.43;;;1.20;;
980;SDS011;479;53.514;9.994;2023-04-07T13:49:54;1.50;;;1.40;;
980;SDS011;479;53.514;9.994;2023-04-07T13:52:21;4.00;;;2.37;;
980;SDS011;479;53.514;9.994;2023-04-07T13:54:48;2.87;;;2.10;;
980;SDS011;479;53.514;9.994;2023-04-07T13:57:15;2.73;;;2.50;;
980;SDS011;479;53.514;9.994;2023-04-07T13:59:44;2.77;;;2.20;;
980;SDS011;479;53.514;9.994;2023-04-07T14:02:12;2.10;;;1.90;;
980;SDS011;479;53.514;9.994;2023-04-07T14:04:40;5.03;;;2.60;;
980;SDS011;479;53.514;9.994;2023-04-07T14:07:07;2.40;;;2.20;;
980;SDS011;479;53.514;9.994;2023-04-07T14:09:34;3.03;;;2.83;;
980;SDS011;479;53.514;9.994;2023-04-07T14:12:02;3.13;;;2.20;;
980;SDS011;479;53.514;9.994;2023-04-07T14:14:29;1.90;;;1.80;;
980;SDS011;479;53.514;9.994;2023-04-07T14:16:56;2.70;;;2.27;;
980;SDS011;479;53.514;9.994;2023-04-07T14:19:23;2.00;;;1.90;;
980;SDS011;479;53.514;9.994;2023-04-07T14:21:51;2.53;;;2.20;;
980;SDS011;479;53.514;9.994;2023-04-07T14:24:18;2.37;;;2.17;;
980;SDS011;479;53.514;9.994;2023-04-07T14:26:45;3.30;;;2.50;;
980;SDS011;479;53.514;9.994;2023-04-07T14:29:12;2.40;;;2.20;;
980;SDS011;479;53.514;9.994;2023-04-07T14:31:40;6.33;;;2.50;;
980;SDS011;479;53.514;9.994;2023-04-07T14:34:07;3.60;;;2.47;;
980;SDS011;479;53.514;9.994;2023-04-07T14:36:34;3.87;;;2.47;;
980;SDS011;479;53.514;9.994;2023-04-07T14:39:02;2.73;;;2.27;;
980;SDS011;479;53.514;9.994;2023-04-07T14:41:31;2.10;;;2.00;;
980;SDS011;479;53.514;9.994;2023-04-07T14:44:00;8.57;;;6.33;;
980;SDS011;479;53.514;9.994;2023-04-07T14:46:27;1.40;;;1.30;;
980;SDS011;479;53.514;9.994;2023-04-07T14:48:54;3.70;;;2.57;;
980;SDS011;479;53.514;9.994;2023-04-07T14:51:22;2.87;;;2.07;;
980;SDS011;479;53.514;9.994;2023-04-07T14:53:49;2.40;;;2.20;;
980;SDS011;479;53.514;9.994;2023-04-07T14:56:21;3.70;;;2.70;;
980;SDS011;479;53.514;9.994;2023-04-07T14:58:48;2.40;;;2.20;;
980;SDS011;479;53.514;9.994;2023-04-07T15:01:16;4.63;;;3.17;;
980;SDS011;479;53.514;9.994;2023-04-07T15:03:43;3.70;;;2.57;;
980;SDS011;479;53.514;9.994;2023-04-07T15:06:11;4.40;;;3.10;;
980;SDS011;479;53.514;9.994;2023-04-07T15:08:39;2.50;;;2.30;;
980;SDS011;479;53.514;9.994;2023-04-07T15:11:06;3.43;;;3.00;;
980;SDS011;479;53.514;9.994;2023-04-07T15:13:36;2.23;;;2.07;;
980;SDS011;479;53.514;9.994;2023-04-07T15:16:10;2.40;;;2.20;;
980;SDS011;479;53.514;9.994;2023-04-07T15:18:43;3.30;;;3.10;;
980;SDS011;479;53.514;9.994;2023-04-07T15:21:12;4.10;;;3.70;;
980;SDS011;479;53.514;9.994;2023-04-07T15:23:40;6.10;;;3.20;;
980;SDS011;479;53.514;9.994;2023-04-07T15:26:10;2.20;;;2.00;;
980;SDS011;479;53.514;9.994;2023-04-07T15:28:39;2.80;;;2.50;;
980;SDS011;479;53.514;9.994;2023-04-07T15:31:06;2.50;;;2.07;;
980;SDS011;479;53.514;9.994;2023-04-07T15:33:36;2.97;;;2.33;;
980;SDS011;479;53.514;9.994;2023-04-07T15:36:08;4.03;;;1.73;;
980;SDS011;479;53.514;9.994;2023-04-07T15:38:35;9.53;;;4.90;;
980;SDS011;479;53.514;9.994;2023-04-07T15:41:05;2.93;;;2.50;;
980;SDS011;479;53.514;9.994;2023-04-07T15:43:41;3.73;;;3.40;;
980;SDS011;479;53.514;9.994;2023-04-07T15:46:11;3.00;;;2.80;;
980;SDS011;479;53.514;9.994;2023-04-07T15:48:40;5.80;;;2.90;;
980;SDS011;479;53.514;9.994;2023-04-07T15:51:16;3.30;;;3.00;;
980;SDS011;479;53.514;9.994;2023-04-07T15:53:43;2.90;;;1.80;;
980;SDS011;479;53.514;9.994;2023-04-07T15:56:13;3.33;;;3.00;;
980;SDS011;479;53.514;9.994;2023-04-07T15:58:48;2.67;;;2.47;;
980;SDS011;479;53.514;9.994;2023-04-07T16:01:15;10.23;;;7.00;;
980;SDS011;479;53.514;9.994;2023-04-07T16:03:44;2.90;;;2.57;;
980;SDS011;479;53.514;9.994;2023-04-07T16:06:19;4.00;;;3.23;;